To NAV CANADA Home Page Login to a new session Search on AWWS site Feedback and Comments Disclaimer Vers la page française équivalente Tips FAQ What's new on the site To the Forecasts and Observations / NOTAM section To "File a Flight Plan" website Publications and other links Update of the User's profile FIC Telephone Numbers My Weather Data Folder Route Weather Data Regional Weather Data Local Weather Data To the Forecasts and Observations / NOTAM section
Request Generated 08/03/2015 at 10:37:36 UTC . Weather information available at that time is displayed.

METAR/TAF

THOMPSON/MB    

SPECI CYTH 031005Z 33005KT 310V010 15SM -SHRA OVC011 11/09 A2983 RMK
SC8 SLP111=
METAR CYTH 031000Z 32004KT 15SM BKN009 OVC014 10/09 A2983 RMK SC5SC3
SLP110=
METAR CYTH 030800Z 35006KT 15SM BKN032 OVC045 11/09 A2982 RMK SC5SC3
SLP104=

TAF CYTH 030638Z 0307/0319 32006KT P6SM SCT015 OVC060 TEMPO 0307/0309
5SM -RA BR OVC015
FM030900 34008KT 5SM -RA -DZ BR OVC012 TEMPO 0309/0315 P6SM NSW
SCT012 OVC025
FM031500 36010KT 5SM -DZ BR OVC012 TEMPO 0315/0319 P6SM NSW
SCT012 OVC025
RMK NXT FCST BY 031300Z=
Your time UTC time
Weather data provided by Environment Canada and NAV CANADA